Allens Point, New York
Current Conditions -  °F | °C
As of 12:53 AM on Friday 31 Oct 2014 (Local Time) from KPEO Reporting Station
Overcast Overcast  
Wind Chill: 38°   Ceiling: 4800
Heat Index: 38°   Visibility: 10mi
Dew Point: 36°   Wind: 3mph
Humidity: 93%   Direction: 190°S
Pressure: 30.02"   Gusts: NA
Location:  42.8228°N, 76.6558°W
Report Text: KPEO 310453Z AUTO 19003KT 10SM OVC048 03/02 A3002 RMK AO2 SLP173 T00330022 400830006
Loading
Personal Weather Stations






























Interactive Weather Map
Tropical Storm Tracking
New forecast layout! Learn more

10-Day Weather Forecast

Advertisements
Track Severe Weather on mobile